sensor_id;sensor_type;location;lat;lon;timestamp;temperature;humidity
23069;DHT22;11702;50.856;4.348;2022-11-24T00:00:25;8.70;99.90
23069;DHT22;11702;50.856;4.348;2022-11-24T00:02:51;8.60;99.90
23069;DHT22;11702;50.856;4.348;2022-11-24T00:05:16;8.60;99.90
23069;DHT22;11702;50.856;4.348;2022-11-24T00:07:42;8.60;99.90
23069;DHT22;11702;50.856;4.348;2022-11-24T00:10:08;8.60;99.90
23069;DHT22;11702;50.856;4.348;2022-11-24T00:12:33;8.60;99.90
23069;DHT22;11702;50.856;4.348;2022-11-24T00:14:59;8.60;99.90
23069;DHT22;11702;50.856;4.348;2022-11-24T00:17:24;8.70;99.90
23069;DHT22;11702;50.856;4.348;2022-11-24T00:19:50;8.70;99.90
23069;DHT22;11702;50.856;4.348;2022-11-24T00:22:16;8.70;99.90
23069;DHT22;11702;50.856;4.348;2022-11-24T00:24:41;8.70;99.90
23069;DHT22;11702;50.856;4.348;2022-11-24T00:27:07;8.80;99.90
23069;DHT22;11702;50.856;4.348;2022-11-24T00:29:32;8.70;99.90
23069;DHT22;11702;50.856;4.348;2022-11-24T00:31:58;8.70;99.90
23069;DHT22;11702;50.856;4.348;2022-11-24T00:34:24;8.80;99.90
23069;DHT22;11702;50.856;4.348;2022-11-24T00:36:49;8.80;99.90
23069;DHT22;11702;50.856;4.348;2022-11-24T00:39:15;8.70;99.90
23069;DHT22;11702;50.856;4.348;2022-11-24T00:41:41;8.90;99.90
23069;DHT22;11702;50.856;4.348;2022-11-24T00:44:07;8.80;99.90
23069;DHT22;11702;50.856;4.348;2022-11-24T00:46:33;8.80;99.90
23069;DHT22;11702;50.856;4.348;2022-11-24T00:48:59;8.80;99.90
23069;DHT22;11702;50.856;4.348;2022-11-24T00:51:26;8.80;99.90
23069;DHT22;11702;50.856;4.348;2022-11-24T00:53:54;8.90;99.90
23069;DHT22;11702;50.856;4.348;2022-11-24T00:56:21;8.90;99.90
23069;DHT22;11702;50.856;4.348;2022-11-24T00:58:46;8.90;99.90
23069;DHT22;11702;50.856;4.348;2022-11-24T01:01:18;8.80;99.90
23069;DHT22;11702;50.856;4.348;2022-11-24T01:03:47;9.00;99.90
23069;DHT22;11702;50.856;4.348;2022-11-24T01:06:16;9.00;99.90
23069;DHT22;11702;50.856;4.348;2022-11-24T01:08:42;9.00;99.90
23069;DHT22;11702;50.856;4.348;2022-11-24T01:13:42;9.00;99.90
23069;DHT22;11702;50.856;4.348;2022-11-24T01:16:28;8.90;99.90
23069;DHT22;11702;50.856;4.348;2022-11-24T01:18:56;8.90;99.90
23069;DHT22;11702;50.856;4.348;2022-11-24T01:21:22;8.90;99.90
23069;DHT22;11702;50.856;4.348;2022-11-24T01:23:48;8.90;99.90
23069;DHT22;11702;50.856;4.348;2022-11-24T01:26:16;8.90;99.90
23069;DHT22;11702;50.856;4.348;2022-11-24T01:28:43;8.90;99.90
23069;DHT22;11702;50.856;4.348;2022-11-24T01:31:09;8.90;99.90
23069;DHT22;11702;50.856;4.348;2022-11-24T01:33:35;8.90;99.90
23069;DHT22;11702;50.856;4.348;2022-11-24T01:36:02;8.80;99.90
23069;DHT22;11702;50.856;4.348;2022-11-24T01:38:29;8.80;99.90
23069;DHT22;11702;50.856;4.348;2022-11-24T01:41:07;8.80;99.90
23069;DHT22;11702;50.856;4.348;2022-11-24T01:43:34;8.80;99.90
23069;DHT22;11702;50.856;4.348;2022-11-24T01:51:28;9.10;99.90
23069;DHT22;11702;50.856;4.348;2022-11-24T01:54:01;9.10;99.90
23069;DHT22;11702;50.856;4.348;2022-11-24T01:56:29;9.20;99.90
23069;DHT22;11702;50.856;4.348;2022-11-24T01:58:58;9.20;99.90
23069;DHT22;11702;50.856;4.348;2022-11-24T02:01:25;9.20;99.90
23069;DHT22;11702;50.856;4.348;2022-11-24T02:03:52;9.10;99.90
23069;DHT22;11702;50.856;4.348;2022-11-24T02:06:29;9.20;99.90
23069;DHT22;11702;50.856;4.348;2022-11-24T02:09:16;9.30;99.90
23069;DHT22;11702;50.856;4.348;2022-11-24T02:11:46;9.30;99.90
23069;DHT22;11702;50.856;4.348;2022-11-24T02:14:13;9.30;99.90
23069;DHT22;11702;50.856;4.348;2022-11-24T02:16:41;9.20;99.90
23069;DHT22;11702;50.856;4.348;2022-11-24T02:19:35;9.20;99.90
23069;DHT22;11702;50.856;4.348;2022-11-24T02:22:02;9.10;99.90
23069;DHT22;11702;50.856;4.348;2022-11-24T02:24:46;9.20;99.90
23069;DHT22;11702;50.856;4.348;2022-11-24T02:27:12;9.30;99.90
23069;DHT22;11702;50.856;4.348;2022-11-24T02:29:39;9.30;99.90
23069;DHT22;11702;50.856;4.348;2022-11-24T02:32:06;9.50;99.90
23069;DHT22;11702;50.856;4.348;2022-11-24T02:34:33;9.70;99.90
23069;DHT22;11702;50.856;4.348;2022-11-24T02:36:59;9.60;99.90
23069;DHT22;11702;50.856;4.348;2022-11-24T02:39:24;9.60;99.90
23069;DHT22;11702;50.856;4.348;2022-11-24T02:41:57;9.60;99.90
23069;DHT22;11702;50.856;4.348;2022-11-24T02:44:27;9.60;99.90
23069;DHT22;11702;50.856;4.348;2022-11-24T02:47:09;9.70;99.90
23069;DHT22;11702;50.856;4.348;2022-11-24T02:49:35;9.70;99.90
23069;DHT22;11702;50.856;4.348;2022-11-24T02:52:01;9.70;99.90
23069;DHT22;11702;50.856;4.348;2022-11-24T02:54:27;9.70;99.90
23069;DHT22;11702;50.856;4.348;2022-11-24T02:56:53;9.70;99.90
23069;DHT22;11702;50.856;4.348;2022-11-24T02:59:18;9.60;99.90
23069;DHT22;11702;50.856;4.348;2022-11-24T03:01:44;9.60;99.90
23069;DHT22;11702;50.856;4.348;2022-11-24T03:04:10;9.50;99.90
23069;DHT22;11702;50.856;4.348;2022-11-24T03:06:36;9.60;99.90
23069;DHT22;11702;50.856;4.348;2022-11-24T03:09:03;9.60;99.90
23069;DHT22;11702;50.856;4.348;2022-11-24T03:11:28;9.60;99.90
23069;DHT22;11702;50.856;4.348;2022-11-24T03:13:54;9.60;99.90
23069;DHT22;11702;50.856;4.348;2022-11-24T03:16:20;9.40;99.90
23069;DHT22;11702;50.856;4.348;2022-11-24T03:18:45;9.40;99.90
23069;DHT22;11702;50.856;4.348;2022-11-24T03:21:12;9.30;99.90
23069;DHT22;11702;50.856;4.348;2022-11-24T03:23:38;9.40;99.90
23069;DHT22;11702;50.856;4.348;2022-11-24T03:26:11;9.20;99.90
23069;DHT22;11702;50.856;4.348;2022-11-24T03:28:37;9.20;99.90
23069;DHT22;11702;50.856;4.348;2022-11-24T03:31:02;9.30;99.90
23069;DHT22;11702;50.856;4.348;2022-11-24T03:33:28;9.30;99.90
23069;DHT22;11702;50.856;4.348;2022-11-24T03:35:54;9.30;99.90
23069;DHT22;11702;50.856;4.348;2022-11-24T03:38:20;9.30;99.90
23069;DHT22;11702;50.856;4.348;2022-11-24T03:40:45;9.30;99.90
23069;DHT22;11702;50.856;4.348;2022-11-24T03:43:11;9.20;99.90
23069;DHT22;11702;50.856;4.348;2022-11-24T03:45:37;9.10;99.90
23069;DHT22;11702;50.856;4.348;2022-11-24T03:48:02;9.10;99.90
23069;DHT22;11702;50.856;4.348;2022-11-24T03:50:28;9.20;99.90
23069;DHT22;11702;50.856;4.348;2022-11-24T03:52:53;9.20;99.90
23069;DHT22;11702;50.856;4.348;2022-11-24T03:55:19;9.10;99.90
23069;DHT22;11702;50.856;4.348;2022-11-24T03:57:45;9.20;99.90
23069;DHT22;11702;50.856;4.348;2022-11-24T04:00:11;9.30;99.90
23069;DHT22;11702;50.856;4.348;2022-11-24T04:02:37;9.20;99.90
23069;DHT22;11702;50.856;4.348;2022-11-24T04:05:03;9.20;99.90
23069;DHT22;11702;50.856;4.348;2022-11-24T04:07:29;9.00;99.90
23069;DHT22;11702;50.856;4.348;2022-11-24T04:09:54;9.10;99.90
23069;DHT22;11702;50.856;4.348;2022-11-24T04:12:20;9.10;99.90
23069;DHT22;11702;50.856;4.348;2022-11-24T04:15:04;9.00;99.90
23069;DHT22;11702;50.856;4.348;2022-11-24T04:17:30;8.90;99.90
23069;DHT22;11702;50.856;4.348;2022-11-24T04:19:55;8.80;99.90
23069;DHT22;11702;50.856;4.348;2022-11-24T04:22:21;8.80;99.90
23069;DHT22;11702;50.856;4.348;2022-11-24T04:24:47;8.80;99.90
23069;DHT22;11702;50.856;4.348;2022-11-24T04:27:12;8.80;99.90
23069;DHT22;11702;50.856;4.348;2022-11-24T04:29:38;8.80;99.90
23069;DHT22;11702;50.856;4.348;2022-11-24T04:32:04;8.70;99.90
23069;DHT22;11702;50.856;4.348;2022-11-24T04:34:30;8.70;99.90
23069;DHT22;11702;50.856;4.348;2022-11-24T04:36:55;8.70;99.90
23069;DHT22;11702;50.856;4.348;2022-11-24T04:39:21;8.60;99.90
23069;DHT22;11702;50.856;4.348;2022-11-24T04:41:46;8.60;99.90
23069;DHT22;11702;50.856;4.348;2022-11-24T04:44:12;8.60;99.90
23069;DHT22;11702;50.856;4.348;2022-11-24T04:46:39;8.60;99.90
23069;DHT22;11702;50.856;4.348;2022-11-24T04:49:05;8.60;99.90
23069;DHT22;11702;50.856;4.348;2022-11-24T04:51:31;8.60;99.90
23069;DHT22;11702;50.856;4.348;2022-11-24T04:53:56;8.50;99.90
23069;DHT22;11702;50.856;4.348;2022-11-24T04:56:22;8.40;99.90
23069;DHT22;11702;50.856;4.348;2022-11-24T04:58:48;8.30;99.90
23069;DHT22;11702;50.856;4.348;2022-11-24T05:01:14;8.20;99.90
23069;DHT22;11702;50.856;4.348;2022-11-24T05:03:39;8.10;99.90
23069;DHT22;11702;50.856;4.348;2022-11-24T05:06:05;8.20;99.90
23069;DHT22;11702;50.856;4.348;2022-11-24T05:08:33;8.20;99.90
23069;DHT22;11702;50.856;4.348;2022-11-24T05:11:03;8.10;99.90
23069;DHT22;11702;50.856;4.348;2022-11-24T05:13:29;8.10;99.90
23069;DHT22;11702;50.856;4.348;2022-11-24T05:15:55;8.00;99.90
23069;DHT22;11702;50.856;4.348;2022-11-24T05:18:20;8.00;99.90
23069;DHT22;11702;50.856;4.348;2022-11-24T05:20:47;7.90;99.90
23069;DHT22;11702;50.856;4.348;2022-11-24T05:23:14;7.90;99.90
23069;DHT22;11702;50.856;4.348;2022-11-24T05:25:40;7.90;99.90
23069;DHT22;11702;50.856;4.348;2022-11-24T05:28:07;7.80;99.90
23069;DHT22;11702;50.856;4.348;2022-11-24T05:30:38;7.80;99.90
23069;DHT22;11702;50.856;4.348;2022-11-24T05:33:10;7.80;99.90
23069;DHT22;11702;50.856;4.348;2022-11-24T05:35:36;7.80;99.90
23069;DHT22;11702;50.856;4.348;2022-11-24T05:38:03;7.80;99.90
23069;DHT22;11702;50.856;4.348;2022-11-24T05:40:30;7.80;99.90
23069;DHT22;11702;50.856;4.348;2022-11-24T05:42:56;7.90;99.90
23069;DHT22;11702;50.856;4.348;2022-11-24T05:45:22;7.80;99.90
23069;DHT22;11702;50.856;4.348;2022-11-24T05:47:49;7.90;99.90
23069;DHT22;11702;50.856;4.348;2022-11-24T05:50:17;7.90;99.90
23069;DHT22;11702;50.856;4.348;2022-11-24T05:52:43;8.00;99.90
23069;DHT22;11702;50.856;4.348;2022-11-24T05:55:10;8.00;99.90
23069;DHT22;11702;50.856;4.348;2022-11-24T05:57:36;8.20;99.90
23069;DHT22;11702;50.856;4.348;2022-11-24T06:00:04;8.10;99.90
23069;DHT22;11702;50.856;4.348;2022-11-24T06:02:31;8.20;99.90
23069;DHT22;11702;50.856;4.348;2022-11-24T06:04:56;8.10;99.90
23069;DHT22;11702;50.856;4.348;2022-11-24T06:07:22;8.10;99.90
23069;DHT22;11702;50.856;4.348;2022-11-24T06:09:48;8.00;99.90
23069;DHT22;11702;50.856;4.348;2022-11-24T06:12:13;7.90;99.90
23069;DHT22;11702;50.856;4.348;2022-11-24T06:14:39;7.90;99.90
23069;DHT22;11702;50.856;4.348;2022-11-24T06:17:05;7.90;99.90
23069;DHT22;11702;50.856;4.348;2022-11-24T06:19:31;7.80;99.90
23069;DHT22;11702;50.856;4.348;2022-11-24T06:21:56;7.80;99.90
23069;DHT22;11702;50.856;4.348;2022-11-24T06:24:22;7.70;99.90
23069;DHT22;11702;50.856;4.348;2022-11-24T06:26:48;7.70;99.90
23069;DHT22;11702;50.856;4.348;2022-11-24T06:29:13;7.70;99.90
23069;DHT22;11702;50.856;4.348;2022-11-24T06:31:39;7.60;99.90
23069;DHT22;11702;50.856;4.348;2022-11-24T06:34:07;7.60;99.90
23069;DHT22;11702;50.856;4.348;2022-11-24T06:36:35;7.60;99.90
23069;DHT22;11702;50.856;4.348;2022-11-24T06:39:02;7.50;99.90
23069;DHT22;11702;50.856;4.348;2022-11-24T06:41:28;7.50;99.90
23069;DHT22;11702;50.856;4.348;2022-11-24T06:43:53;7.60;99.90
23069;DHT22;11702;50.856;4.348;2022-11-24T06:46:19;7.50;99.90
23069;DHT22;11702;50.856;4.348;2022-11-24T06:48:45;7.40;99.90
23069;DHT22;11702;50.856;4.348;2022-11-24T06:51:12;7.50;99.90
23069;DHT22;11702;50.856;4.348;2022-11-24T06:53:39;7.50;99.90
23069;DHT22;11702;50.856;4.348;2022-11-24T06:56:09;7.40;99.90
23069;DHT22;11702;50.856;4.348;2022-11-24T06:58:40;7.40;99.90
23069;DHT22;11702;50.856;4.348;2022-11-24T07:01:06;7.30;99.90
23069;DHT22;11702;50.856;4.348;2022-11-24T07:03:32;7.30;99.90
23069;DHT22;11702;50.856;4.348;2022-11-24T07:05:58;7.30;99.90
23069;DHT22;11702;50.856;4.348;2022-11-24T07:08:24;7.20;99.90
23069;DHT22;11702;50.856;4.348;2022-11-24T07:10:49;7.30;99.90
23069;DHT22;11702;50.856;4.348;2022-11-24T07:13:17;7.30;99.90
23069;DHT22;11702;50.856;4.348;2022-11-24T07:15:43;7.20;99.90
23069;DHT22;11702;50.856;4.348;2022-11-24T07:18:08;7.20;99.90
23069;DHT22;11702;50.856;4.348;2022-11-24T07:20:34;7.20;99.90
23069;DHT22;11702;50.856;4.348;2022-11-24T07:23:00;7.20;99.90
23069;DHT22;11702;50.856;4.348;2022-11-24T07:25:26;7.20;99.90
23069;DHT22;11702;50.856;4.348;2022-11-24T07:27:56;7.30;99.90
23069;DHT22;11702;50.856;4.348;2022-11-24T07:30:22;7.30;99.90
23069;DHT22;11702;50.856;4.348;2022-11-24T07:32:48;7.20;99.90
23069;DHT22;11702;50.856;4.348;2022-11-24T07:35:13;7.20;99.90
23069;DHT22;11702;50.856;4.348;2022-11-24T07:37:39;7.30;99.90
23069;DHT22;11702;50.856;4.348;2022-11-24T07:40:05;7.30;99.90
23069;DHT22;11702;50.856;4.348;2022-11-24T07:42:31;7.20;99.90
23069;DHT22;11702;50.856;4.348;2022-11-24T07:44:57;7.30;99.90
23069;DHT22;11702;50.856;4.348;2022-11-24T07:47:22;7.30;99.90
23069;DHT22;11702;50.856;4.348;2022-11-24T07:49:48;7.30;99.90
23069;DHT22;11702;50.856;4.348;2022-11-24T07:52:13;7.30;99.90
23069;DHT22;11702;50.856;4.348;2022-11-24T07:54:39;7.30;99.90
23069;DHT22;11702;50.856;4.348;2022-11-24T07:57:04;7.30;99.90
23069;DHT22;11702;50.856;4.348;2022-11-24T07:59:30;7.30;99.90
23069;DHT22;11702;50.856;4.348;2022-11-24T08:01:56;7.40;99.90
23069;DHT22;11702;50.856;4.348;2022-11-24T08:04:21;7.50;99.90
23069;DHT22;11702;50.856;4.348;2022-11-24T08:06:47;7.50;99.90
23069;DHT22;11702;50.856;4.348;2022-11-24T08:09:12;7.50;99.90
23069;DHT22;11702;50.856;4.348;2022-11-24T08:11:38;7.60;99.90
23069;DHT22;11702;50.856;4.348;2022-11-24T08:14:04;7.70;99.90
23069;DHT22;11702;50.856;4.348;2022-11-24T08:16:29;7.70;99.90
23069;DHT22;11702;50.856;4.348;2022-11-24T08:18:56;7.80;99.90
23069;DHT22;11702;50.856;4.348;2022-11-24T08:21:22;7.80;99.90
23069;DHT22;11702;50.856;4.348;2022-11-24T08:23:49;7.90;99.90
23069;DHT22;11702;50.856;4.348;2022-11-24T08:26:20;7.90;99.90
23069;DHT22;11702;50.856;4.348;2022-11-24T08:28:46;7.80;99.90
23069;DHT22;11702;50.856;4.348;2022-11-24T08:31:16;7.90;99.90
23069;DHT22;11702;50.856;4.348;2022-11-24T08:33:45;8.00;99.90
23069;DHT22;11702;50.856;4.348;2022-11-24T08:36:14;7.90;99.90
23069;DHT22;11702;50.856;4.348;2022-11-24T08:38:40;8.00;99.90
23069;DHT22;11702;50.856;4.348;2022-11-24T08:41:08;8.10;99.90
23069;DHT22;11702;50.856;4.348;2022-11-24T08:43:35;8.20;99.90
23069;DHT22;11702;50.856;4.348;2022-11-24T08:46:12;8.20;99.90
23069;DHT22;11702;50.856;4.348;2022-11-24T08:48:38;8.20;99.90
23069;DHT22;11702;50.856;4.348;2022-11-24T08:51:09;8.20;99.90
23069;DHT22;11702;50.856;4.348;2022-11-24T08:53:35;8.30;99.90
23069;DHT22;11702;50.856;4.348;2022-11-24T08:56:03;8.50;99.90
23069;DHT22;11702;50.856;4.348;2022-11-24T08:58:29;8.50;99.90
23069;DHT22;11702;50.856;4.348;2022-11-24T09:00:55;8.60;99.90
23069;DHT22;11702;50.856;4.348;2022-11-24T09:03:27;8.70;99.90
23069;DHT22;11702;50.856;4.348;2022-11-24T09:05:53;8.70;99.90
23069;DHT22;11702;50.856;4.348;2022-11-24T09:08:18;8.70;99.90
23069;DHT22;11702;50.856;4.348;2022-11-24T09:10:45;8.80;99.90
23069;DHT22;11702;50.856;4.348;2022-11-24T09:13:12;8.90;99.90
23069;DHT22;11702;50.856;4.348;2022-11-24T09:15:37;9.00;99.90
23069;DHT22;11702;50.856;4.348;2022-11-24T09:18:03;9.00;99.90
23069;DHT22;11702;50.856;4.348;2022-11-24T09:20:29;9.00;99.90
23069;DHT22;11702;50.856;4.348;2022-11-24T09:22:55;9.00;99.90
23069;DHT22;11702;50.856;4.348;2022-11-24T09:25:21;9.10;99.90
23069;DHT22;11702;50.856;4.348;2022-11-24T09:27:48;9.00;99.90
23069;DHT22;11702;50.856;4.348;2022-11-24T09:30:14;9.10;99.90
23069;DHT22;11702;50.856;4.348;2022-11-24T09:32:40;9.30;99.90
23069;DHT22;11702;50.856;4.348;2022-11-24T09:35:06;9.40;99.90
23069;DHT22;11702;50.856;4.348;2022-11-24T09:37:32;9.40;99.90
23069;DHT22;11702;50.856;4.348;2022-11-24T09:39:57;9.40;99.90
23069;DHT22;11702;50.856;4.348;2022-11-24T09:47:58;9.50;99.90
23069;DHT22;11702;50.856;4.348;2022-11-24T09:50:34;9.50;99.90
23069;DHT22;11702;50.856;4.348;2022-11-24T09:53:10;9.60;99.90
23069;DHT22;11702;50.856;4.348;2022-11-24T09:55:51;9.70;99.90
23069;DHT22;11702;50.856;4.348;2022-11-24T09:58:41;9.70;99.90
23069;DHT22;11702;50.856;4.348;2022-11-24T10:01:16;9.80;99.90
23069;DHT22;11702;50.856;4.348;2022-11-24T10:03:49;9.80;99.90
23069;DHT22;11702;50.856;4.348;2022-11-24T10:06:25;9.80;99.90
23069;DHT22;11702;50.856;4.348;2022-11-24T10:16:37;10.00;99.90
23069;DHT22;11702;50.856;4.348;2022-11-24T10:24:56;10.30;99.90
23069;DHT22;11702;50.856;4.348;2022-11-24T10:27:29;10.30;99.90
23069;DHT22;11702;50.856;4.348;2022-11-24T10:29:59;10.40;99.90
23069;DHT22;11702;50.856;4.348;2022-11-24T10:32:36;10.40;99.90
23069;DHT22;11702;50.856;4.348;2022-11-24T10:35:19;10.40;99.90
23069;DHT22;11702;50.856;4.348;2022-11-24T10:38:10;10.50;99.90
23069;DHT22;11702;50.856;4.348;2022-11-24T10:40:43;10.50;99.90
23069;DHT22;11702;50.856;4.348;2022-11-24T10:43:10;10.50;99.90
23069;DHT22;11702;50.856;4.348;2022-11-24T10:45:37;10.50;99.90
23069;DHT22;11702;50.856;4.348;2022-11-24T10:48:27;10.50;99.90
23069;DHT22;11702;50.856;4.348;2022-11-24T10:51:04;10.40;99.90
23069;DHT22;11702;50.856;4.348;2022-11-24T10:53:39;10.50;99.90
23069;DHT22;11702;50.856;4.348;2022-11-24T10:56:06;10.50;99.90
23069;DHT22;11702;50.856;4.348;2022-11-24T10:58:36;10.50;99.90
23069;DHT22;11702;50.856;4.348;2022-11-24T11:03:48;10.70;99.90
23069;DHT22;11702;50.856;4.348;2022-11-24T11:06:30;10.60;99.90
23069;DHT22;11702;50.856;4.348;2022-11-24T11:11:31;10.60;99.90
23069;DHT22;11702;50.856;4.348;2022-11-24T11:14:02;10.80;99.90
23069;DHT22;11702;50.856;4.348;2022-11-24T11:18:59;10.90;99.90
23069;DHT22;11702;50.856;4.348;2022-11-24T11:21:31;11.00;99.90
23069;DHT22;11702;50.856;4.348;2022-11-24T11:23:58;11.00;99.90
23069;DHT22;11702;50.856;4.348;2022-11-24T11:31:33;11.40;99.90
23069;DHT22;11702;50.856;4.348;2022-11-24T11:36:50;11.60;99.90
23069;DHT22;11702;50.856;4.348;2022-11-24T11:39:24;11.60;99.90
23069;DHT22;11702;50.856;4.348;2022-11-24T11:42:37;11.60;99.90
23069;DHT22;11702;50.856;4.348;2022-11-24T11:47:21;11.50;99.90
23069;DHT22;11702;50.856;4.348;2022-11-24T11:49:49;11.50;99.90
23069;DHT22;11702;50.856;4.348;2022-11-24T12:00:21;11.50;99.90
23069;DHT22;11702;50.856;4.348;2022-11-24T12:05:40;11.40;99.90
23069;DHT22;11702;50.856;4.348;2022-11-24T12:11:47;11.50;99.90
23069;DHT22;11702;50.856;4.348;2022-11-24T12:14:31;11.50;99.90
23069;DHT22;11702;50.856;4.348;2022-11-24T12:17:25;11.40;99.90
23069;DHT22;11702;50.856;4.348;2022-11-24T12:23:04;11.30;99.90
23069;DHT22;11702;50.856;4.348;2022-11-24T12:25:41;11.30;99.90
23069;DHT22;11702;50.856;4.348;2022-11-24T12:28:43;11.40;99.90
23069;DHT22;11702;50.856;4.348;2022-11-24T12:31:17;11.40;99.90
23069;DHT22;11702;50.856;4.348;2022-11-24T12:34:03;11.40;99.90
23069;DHT22;11702;50.856;4.348;2022-11-24T12:36:45;11.40;99.90
23069;DHT22;11702;50.856;4.348;2022-11-24T12:39:33;11.60;99.90
23069;DHT22;11702;50.856;4.348;2022-11-24T12:42:16;11.70;99.90
23069;DHT22;11702;50.856;4.348;2022-11-24T12:45:01;11.70;99.90
23069;DHT22;11702;50.856;4.348;2022-11-24T12:50:19;11.70;99.90
23069;DHT22;11702;50.856;4.348;2022-11-24T12:53:04;11.80;99.90
23069;DHT22;11702;50.856;4.348;2022-11-24T12:55:37;11.70;99.90
23069;DHT22;11702;50.856;4.348;2022-11-24T12:58:16;11.70;99.90
23069;DHT22;11702;50.856;4.348;2022-11-24T13:08:40;11.70;99.90
23069;DHT22;11702;50.856;4.348;2022-11-24T13:11:42;11.70;99.90
23069;DHT22;11702;50.856;4.348;2022-11-24T13:16:57;11.60;99.90
23069;DHT22;11702;50.856;4.348;2022-11-24T13:19:34;11.60;99.90
23069;DHT22;11702;50.856;4.348;2022-11-24T13:24:32;11.60;99.90
23069;DHT22;11702;50.856;4.348;2022-11-24T13:42:17;11.70;99.90
23069;DHT22;11702;50.856;4.348;2022-11-24T13:45:03;11.70;99.90
23069;DHT22;11702;50.856;4.348;2022-11-24T13:47:51;11.60;99.90
23069;DHT22;11702;50.856;4.348;2022-11-24T13:52:56;11.60;99.90
23069;DHT22;11702;50.856;4.348;2022-11-24T13:55:33;11.40;99.90
23069;DHT22;11702;50.856;4.348;2022-11-24T14:00:35;11.30;99.90
23069;DHT22;11702;50.856;4.348;2022-11-24T14:03:21;11.40;99.90
23069;DHT22;11702;50.856;4.348;2022-11-24T14:05:51;11.30;99.90
23069;DHT22;11702;50.856;4.348;2022-11-24T14:11:15;11.30;99.90
23069;DHT22;11702;50.856;4.348;2022-11-24T14:13:41;11.20;99.90
23069;DHT22;11702;50.856;4.348;2022-11-24T14:16:18;11.20;99.90
23069;DHT22;11702;50.856;4.348;2022-11-24T14:18:49;11.30;99.90
23069;DHT22;11702;50.856;4.348;2022-11-24T14:21:32;11.30;99.90
23069;DHT22;11702;50.856;4.348;2022-11-24T14:26:34;11.40;99.90
23069;DHT22;11702;50.856;4.348;2022-11-24T14:29:15;11.40;99.90
23069;DHT22;11702;50.856;4.348;2022-11-24T14:31:42;11.40;99.90
23069;DHT22;11702;50.856;4.348;2022-11-24T14:34:20;11.20;99.90
23069;DHT22;11702;50.856;4.348;2022-11-24T14:36:47;11.20;99.90
23069;DHT22;11702;50.856;4.348;2022-11-24T14:39:15;11.30;99.90
23069;DHT22;11702;50.856;4.348;2022-11-24T14:41:48;11.30;99.90
23069;DHT22;11702;50.856;4.348;2022-11-24T14:44:22;11.30;99.90
23069;DHT22;11702;50.856;4.348;2022-11-24T14:46:48;11.30;99.90
23069;DHT22;11702;50.856;4.348;2022-11-24T14:49:19;11.10;99.90
23069;DHT22;11702;50.856;4.348;2022-11-24T14:51:51;11.10;99.90
23069;DHT22;11702;50.856;4.348;2022-11-24T14:54:19;11.10;99.90
23069;DHT22;11702;50.856;4.348;2022-11-24T14:57:03;11.10;99.90
23069;DHT22;11702;50.856;4.348;2022-11-24T14:59:31;11.00;99.90
23069;DHT22;11702;50.856;4.348;2022-11-24T15:01:59;11.00;99.90
23069;DHT22;11702;50.856;4.348;2022-11-24T15:04:26;10.90;99.90
23069;DHT22;11702;50.856;4.348;2022-11-24T15:07:15;10.80;99.90
23069;DHT22;11702;50.856;4.348;2022-11-24T15:12:28;10.80;99.90
23069;DHT22;11702;50.856;4.348;2022-11-24T15:15:03;10.80;99.90
23069;DHT22;11702;50.856;4.348;2022-11-24T15:17:30;10.70;99.90
23069;DHT22;11702;50.856;4.348;2022-11-24T15:20:07;10.70;99.90
23069;DHT22;11702;50.856;4.348;2022-11-24T15:22:39;10.60;99.90
23069;DHT22;11702;50.856;4.348;2022-11-24T15:25:31;10.60;99.90
23069;DHT22;11702;50.856;4.348;2022-11-24T15:28:00;10.60;99.90
23069;DHT22;11702;50.856;4.348;2022-11-24T15:30:26;10.60;99.90
23069;DHT22;11702;50.856;4.348;2022-11-24T15:32:54;10.60;99.90
23069;DHT22;11702;50.856;4.348;2022-11-24T15:35:20;10.60;99.90
23069;DHT22;11702;50.856;4.348;2022-11-24T15:37:47;10.60;99.90
23069;DHT22;11702;50.856;4.348;2022-11-24T15:40:13;10.70;99.90
23069;DHT22;11702;50.856;4.348;2022-11-24T15:42:39;10.60;99.90
23069;DHT22;11702;50.856;4.348;2022-11-24T15:45:05;10.50;99.90
23069;DHT22;11702;50.856;4.348;2022-11-24T15:47:31;10.40;99.90
23069;DHT22;11702;50.856;4.348;2022-11-24T15:50:00;10.30;99.90
23069;DHT22;11702;50.856;4.348;2022-11-24T15:52:26;10.30;99.90
23069;DHT22;11702;50.856;4.348;2022-11-24T15:54:53;10.30;99.90
23069;DHT22;11702;50.856;4.348;2022-11-24T15:57:20;10.20;99.90
23069;DHT22;11702;50.856;4.348;2022-11-24T15:59:46;10.20;99.90
23069;DHT22;11702;50.856;4.348;2022-11-24T16:02:11;10.10;99.90
23069;DHT22;11702;50.856;4.348;2022-11-24T16:04:37;10.00;99.90
23069;DHT22;11702;50.856;4.348;2022-11-24T16:07:11;10.00;99.90
23069;DHT22;11702;50.856;4.348;2022-11-24T16:09:36;9.90;99.90
23069;DHT22;11702;50.856;4.348;2022-11-24T16:12:02;9.90;99.90
23069;DHT22;11702;50.856;4.348;2022-11-24T16:14:28;9.90;99.90
23069;DHT22;11702;50.856;4.348;2022-11-24T16:16:55;9.80;99.90
23069;DHT22;11702;50.856;4.348;2022-11-24T16:19:21;9.70;99.90
23069;DHT22;11702;50.856;4.348;2022-11-24T16:21:48;9.80;99.90
23069;DHT22;11702;50.856;4.348;2022-11-24T16:24:13;9.70;99.90
23069;DHT22;11702;50.856;4.348;2022-11-24T16:26:39;9.70;99.90
23069;DHT22;11702;50.856;4.348;2022-11-24T16:29:05;9.60;99.90
23069;DHT22;11702;50.856;4.348;2022-11-24T16:31:31;9.70;99.90
23069;DHT22;11702;50.856;4.348;2022-11-24T16:33:57;9.60;99.90
23069;DHT22;11702;50.856;4.348;2022-11-24T16:36:23;9.60;99.90
23069;DHT22;11702;50.856;4.348;2022-11-24T16:38:48;9.60;99.90
23069;DHT22;11702;50.856;4.348;2022-11-24T16:41:14;9.60;99.90
23069;DHT22;11702;50.856;4.348;2022-11-24T16:43:40;9.60;99.90
23069;DHT22;11702;50.856;4.348;2022-11-24T16:46:20;9.60;99.90
23069;DHT22;11702;50.856;4.348;2022-11-24T16:48:51;9.50;99.90
23069;DHT22;11702;50.856;4.348;2022-11-24T16:51:19;9.40;99.90
23069;DHT22;11702;50.856;4.348;2022-11-24T16:53:45;9.40;99.90
23069;DHT22;11702;50.856;4.348;2022-11-24T16:56:11;9.40;99.90
23069;DHT22;11702;50.856;4.348;2022-11-24T16:58:39;9.50;99.90
23069;DHT22;11702;50.856;4.348;2022-11-24T17:01:10;9.30;99.90
23069;DHT22;11702;50.856;4.348;2022-11-24T17:03:36;9.30;99.90
23069;DHT22;11702;50.856;4.348;2022-11-24T17:06:04;9.30;99.90
23069;DHT22;11702;50.856;4.348;2022-11-24T17:08:31;9.20;99.90
23069;DHT22;11702;50.856;4.348;2022-11-24T17:10:57;9.20;99.90
23069;DHT22;11702;50.856;4.348;2022-11-24T17:13:23;9.10;99.90
23069;DHT22;11702;50.856;4.348;2022-11-24T17:15:49;9.10;99.90
23069;DHT22;11702;50.856;4.348;2022-11-24T17:18:14;9.00;99.90
23069;DHT22;11702;50.856;4.348;2022-11-24T17:20:40;9.10;99.90
23069;DHT22;11702;50.856;4.348;2022-11-24T17:23:05;9.10;99.90
23069;DHT22;11702;50.856;4.348;2022-11-24T17:25:31;9.00;99.90
23069;DHT22;11702;50.856;4.348;2022-11-24T17:28:00;9.00;99.90
23069;DHT22;11702;50.856;4.348;2022-11-24T17:30:25;9.00;99.90
23069;DHT22;11702;50.856;4.348;2022-11-24T17:32:51;9.00;99.90
23069;DHT22;11702;50.856;4.348;2022-11-24T17:35:16;9.00;99.90
23069;DHT22;11702;50.856;4.348;2022-11-24T17:37:42;9.00;99.90
23069;DHT22;11702;50.856;4.348;2022-11-24T17:40:08;9.00;99.90